Time;durP1;ratioP1;P1;durP2;ratioP2;P2;SDS_P1;SDS_P2;PMS_P1;PMS_P2;Temp;Humidity;BMP_temperature;BMP_pressure;BME280_temperature;BME280_humidity;BME280_pressure;Samples;Min_cycle;Max_cycle;Signal;HPM_P1;HPM_P2
2021/05/03 00:01:21;;;;;;;6.17;3.87;;;9.10;99.90;;;;;;5014011;28;20448;-47
2021/05/03 00:03:47;;;;;;;3.67;3.10;;;9.10;99.90;;;;;;5013821;28;20980;-49
2021/05/03 00:06:14;;;;;;;5.53;3.47;;;9.00;99.90;;;;;;5014232;28;20444;-48
2021/05/03 00:08:42;;;;;;;4.37;3.50;;;8.60;99.90;;;;;;5014112;28;20432;-49
2021/05/03 00:11:09;;;;;;;8.47;3.43;;;9.10;99.90;;;;;;5014076;28;20510;-47
2021/05/03 00:13:35;;;;;;;4.47;3.10;;;8.90;99.90;;;;;;5013569;28;20448;-48
2021/05/03 00:16:01;;;;;;;5.07;3.50;;;8.90;99.90;;;;;;5013931;28;20436;-49
2021/05/03 00:18:27;;;;;;;4.80;3.80;;;8.80;99.90;;;;;;5014159;28;20432;-48
2021/05/03 00:20:54;;;;;;;6.70;3.67;;;8.70;99.90;;;;;;5013750;28;20516;-47
2021/05/03 00:23:20;;;;;;;7.13;4.60;;;8.70;99.90;;;;;;5013144;28;20820;-48
2021/05/03 00:25:47;;;;;;;6.47;3.50;;;8.90;99.90;;;;;;5013459;28;20436;-47
2021/05/03 00:28:14;;;;;;;4.70;3.90;;;8.90;99.90;;;;;;5013510;28;20821;-49
2021/05/03 00:30:40;;;;;;;5.87;4.53;;;9.20;99.90;;;;;;5013501;28;20460;-48
2021/05/03 00:33:07;;;;;;;5.83;4.10;;;8.80;99.90;;;;;;4995575;28;20996;-48
2021/05/03 00:35:33;;;;;;;10.77;4.97;;;8.90;99.90;;;;;;5013153;28;20432;-47
2021/05/03 00:38:00;;;;;;;4.87;3.70;;;9.20;99.90;;;;;;5013073;28;20487;-48
2021/05/03 00:40:27;;;;;;;4.43;3.10;;;9.00;99.90;;;;;;5013123;28;20432;-47
2021/05/03 00:42:54;;;;;;;4.70;3.80;;;8.30;99.90;;;;;;5012576;28;20885;-48
2021/05/03 00:45:22;;;;;;;5.27;3.50;;;8.30;99.90;;;;;;5013340;28;20919;-46
2021/05/03 00:47:49;;;;;;;4.73;3.30;;;8.70;99.90;;;;;;5013037;28;20441;-46
2021/05/03 00:50:19;;;;;;;6.10;3.13;;;8.60;99.90;;;;;;5013059;28;20468;-46
2021/05/03 00:52:46;;;;;;;7.53;4.30;;;8.50;99.90;;;;;;5012456;28;20468;-45
2021/05/03 00:55:13;;;;;;;4.40;3.77;;;8.40;99.90;;;;;;4995197;28;20444;-47
2021/05/03 00:57:40;;;;;;;7.00;3.00;;;8.70;99.90;;;;;;5012763;28;20444;-46
2021/05/03 01:00:10;;;;;;;4.10;3.43;;;8.90;99.90;;;;;;5016815;28;20427;-48
2021/05/03 01:02:37;;;;;;;4.97;3.63;;;8.40;99.90;;;;;;5017588;28;20432;-46
2021/05/03 01:05:04;;;;;;;4.93;4.00;;;8.80;99.90;;;;;;5012895;28;20480;-46
2021/05/03 01:07:30;;;;;;;6.67;3.33;;;8.90;99.90;;;;;;5012929;28;20432;-46
2021/05/03 01:09:56;;;;;;;4.87;3.20;;;8.80;99.90;;;;;;5012928;28;20872;-45
2021/05/03 01:12:22;;;;;;;8.77;3.47;;;8.40;99.90;;;;;;5012450;28;20436;-47
2021/05/03 01:14:49;;;;;;;9.60;3.80;;;8.80;99.90;;;;;;5012562;28;20975;-47
2021/05/03 01:17:16;;;;;;;6.97;4.03;;;8.30;99.90;;;;;;5012757;28;20458;-46
2021/05/03 01:19:42;;;;;;;4.30;3.57;;;8.50;99.90;;;;;;5012456;28;20433;-46
2021/05/03 01:22:09;;;;;;;4.80;3.60;;;8.60;99.90;;;;;;5012662;28;20432;-47
2021/05/03 01:24:35;;;;;;;8.63;3.83;;;8.50;99.90;;;;;;5012019;28;20499;-46
2021/05/03 01:27:02;;;;;;;6.10;3.73;;;8.30;99.90;;;;;;5012434;28;20436;-46
2021/05/03 01:29:28;;;;;;;4.10;3.20;;;8.60;99.90;;;;;;5012429;28;20464;-46
2021/05/03 01:31:54;;;;;;;7.80;4.33;;;8.50;99.90;;;;;;5012304;28;20447;-46
2021/05/03 01:34:21;;;;;;;5.80;3.30;;;8.60;99.90;;;;;;5011834;28;20458;-45
2021/05/03 01:36:48;;;;;;;5.23;3.53;;;8.50;99.90;;;;;;5012644;28;20441;-46
2021/05/03 01:39:17;;;;;;;6.80;3.73;;;8.50;99.90;;;;;;5012714;28;20450;-46
2021/05/03 01:41:43;;;;;;;4.70;3.30;;;8.20;99.90;;;;;;5012515;28;20457;-48
2021/05/03 01:44:12;;;;;;;5.43;3.60;;;8.30;99.90;;;;;;5011921;28;20917;-44
2021/05/03 01:46:39;;;;;;;9.17;3.67;;;8.90;99.90;;;;;;5012390;28;20483;-45
2021/05/03 01:49:07;;;;;;;6.23;3.20;;;8.50;99.90;;;;;;5012284;28;20443;-46
2021/05/03 01:51:36;;;;;;;6.33;3.73;;;8.30;99.90;;;;;;5011628;28;20462;-45
2021/05/03 01:54:04;;;;;;;5.67;4.10;;;8.30;99.90;;;;;;5011759;28;20464;-44
2021/05/03 01:56:31;;;;;;;4.80;4.10;;;8.40;99.90;;;;;;5012157;28;20436;-47
2021/05/03 01:58:58;;;;;;;4.20;3.60;;;8.10;99.90;;;;;;5012657;28;20443;-45
2021/05/03 02:01:24;;;;;;;5.73;3.80;;;8.50;99.90;;;;;;5012007;28;20498;-47
2021/05/03 02:03:51;;;;;;;7.23;4.67;;;8.30;99.90;;;;;;5011633;28;20565;-45
2021/05/03 02:06:17;;;;;;;5.90;4.10;;;8.30;99.90;;;;;;5012062;28;20438;-46
2021/05/03 02:08:43;;;;;;;9.27;4.57;;;8.30;99.90;;;;;;5012010;28;20433;-47
2021/05/03 02:11:10;;;;;;;5.80;4.60;;;8.00;99.90;;;;;;5011918;28;20962;-47
2021/05/03 02:13:38;;;;;;;7.37;4.97;;;8.30;99.90;;;;;;5011731;28;20859;-47
2021/05/03 02:16:05;;;;;;;8.27;4.27;;;8.30;99.90;;;;;;5011924;28;20440;-46
2021/05/03 02:18:31;;;;;;;8.87;4.63;;;8.30;99.90;;;;;;5012632;28;20431;-47
2021/05/03 02:20:58;;;;;;;6.93;4.47;;;8.00;99.90;;;;;;5019697;28;20434;-46
2021/05/03 02:23:24;;;;;;;6.67;4.40;;;8.30;99.90;;;;;;5011408;28;20480;-45
2021/05/03 02:25:50;;;;;;;5.03;4.40;;;8.10;99.90;;;;;;5012654;28;20482;-46
2021/05/03 02:28:16;;;;;;;6.97;3.90;;;8.00;99.90;;;;;;5013118;28;20451;-45
2021/05/03 02:30:43;;;;;;;11.33;4.50;;;8.10;99.90;;;;;;5012984;28;20447;-45
2021/05/03 02:33:10;;;;;;;8.30;4.63;;;8.20;99.90;;;;;;5011627;28;20462;-47
2021/05/03 02:35:36;;;;;;;9.00;4.70;;;8.10;99.90;;;;;;5011922;28;20459;-47
2021/05/03 02:38:04;;;;;;;8.03;5.03;;;7.40;99.90;;;;;;4993692;28;20497;-45
2021/05/03 02:40:31;;;;;;;5.57;4.43;;;7.70;99.90;;;;;;5010630;28;20435;-47
2021/05/03 02:42:59;;;;;;;7.03;5.53;;;7.90;99.90;;;;;;5011005;28;20439;-45
2021/05/03 02:45:27;;;;;;;5.83;4.70;;;7.40;99.90;;;;;;5011762;28;20895;-46
2021/05/03 02:47:54;;;;;;;5.93;4.43;;;7.60;99.90;;;;;;5011529;28;20522;-45
2021/05/03 02:50:22;;;;;;;6.10;4.30;;;7.80;99.90;;;;;;4994359;28;20456;-49
2021/05/03 02:52:49;;;;;;;8.40;5.33;;;7.50;99.90;;;;;;5011342;28;20473;-46
2021/05/03 02:55:15;;;;;;;5.80;5.13;;;7.70;99.90;;;;;;5011616;28;20473;-45
2021/05/03 02:57:43;;;;;;;6.97;4.67;;;7.60;99.90;;;;;;5011644;28;20433;-47
2021/05/03 03:00:13;;;;;;;9.47;5.40;;;7.90;99.90;;;;;;5012096;28;20489;-46
2021/05/03 03:02:39;;;;;;;6.87;4.73;;;7.80;99.90;;;;;;5016112;28;20476;-48
2021/05/03 03:05:07;;;;;;;9.00;4.57;;;7.70;99.90;;;;;;5017457;28;20486;-44
2021/05/03 03:07:33;;;;;;;5.73;4.40;;;7.60;99.90;;;;;;5016692;28;20438;-46
2021/05/03 03:10:00;;;;;;;9.20;4.30;;;7.50;99.90;;;;;;5016467;28;20909;-45
2021/05/03 03:12:28;;;;;;;8.80;5.20;;;7.70;99.90;;;;;;5016759;28;20509;-46
2021/05/03 03:14:54;;;;;;;6.23;3.83;;;6.90;99.90;;;;;;5016811;28;20824;-47
2021/05/03 03:17:21;;;;;;;5.10;4.60;;;7.60;99.90;;;;;;5015369;28;20936;-46
2021/05/03 03:19:47;;;;;;;9.40;4.67;;;7.40;99.90;;;;;;5015497;28;20804;-46
2021/05/03 03:22:15;;;;;;;6.40;4.50;;;7.10;99.90;;;;;;5015406;28;20442;-45
2021/05/03 03:24:41;;;;;;;6.73;6.10;;;7.40;99.90;;;;;;5014945;28;20508;-47
2021/05/03 03:27:08;;;;;;;7.07;4.80;;;7.30;99.90;;;;;;5014727;28;20439;-45
2021/05/03 03:29:34;;;;;;;6.83;4.90;;;7.40;99.90;;;;;;5015083;28;20928;-45
2021/05/03 03:32:00;;;;;;;6.03;4.30;;;7.60;99.90;;;;;;5015610;28;20471;-47
2021/05/03 03:34:27;;;;;;;5.27;4.10;;;7.10;99.90;;;;;;5015319;28;20445;-45
2021/05/03 03:36:53;;;;;;;11.53;5.20;;;7.10;99.90;;;;;;5015597;28;20434;-46
2021/05/03 03:39:20;;;;;;;7.93;4.40;;;7.60;99.90;;;;;;5019525;28;20433;-45
2021/05/03 03:41:46;;;;;;;6.10;4.33;;;7.30;99.90;;;;;;5014661;28;20464;-46
2021/05/03 03:44:12;;;;;;;8.27;4.50;;;7.30;99.90;;;;;;5013956;28;20482;-45
2021/05/03 03:46:39;;;;;;;8.57;4.97;;;7.10;99.90;;;;;;5014242;28;20530;-46
2021/05/03 03:49:05;;;;;;;5.77;4.13;;;7.60;99.90;;;;;;5014228;28;20442;-46
2021/05/03 03:51:31;;;;;;;10.53;4.93;;;7.50;99.90;;;;;;5014191;28;20481;-47
2021/05/03 03:53:58;;;;;;;7.53;3.90;;;7.50;99.90;;;;;;5013549;28;20470;-45
2021/05/03 03:56:27;;;;;;;7.73;4.03;;;7.50;99.90;;;;;;5014857;28;20445;-47
2021/05/03 03:58:53;;;;;;;7.00;5.10;;;7.20;99.90;;;;;;5015426;28;20472;-48
2021/05/03 04:01:19;;;;;;;5.77;4.03;;;7.40;99.90;;;;;;5015218;28;20438;-47
2021/05/03 04:03:47;;;;;;;8.53;4.57;;;7.30;99.90;;;;;;5014596;28;20485;-48
2021/05/03 04:06:34;;;;;;;6.20;4.10;;;7.40;99.90;;;;;;5014828;28;20442;-47
2021/05/03 04:09:07;;;;;;;6.40;4.40;;;7.10;99.90;;;;;;5015484;28;20534;-47
2021/05/03 04:11:51;;;;;;;5.77;4.73;;;7.20;99.90;;;;;;5015026;28;20493;-48
2021/05/03 04:22:47;;;;;;;6.43;4.63;;;7.20;99.90;;;;;;5015080;28;20424;-50
2021/05/03 04:25:17;;;;;;;8.80;4.90;;;7.20;99.90;;;;;;5015331;28;20474;-48
2021/05/03 04:27:44;;;;;;;10.70;5.83;;;7.10;99.90;;;;;;5014927;28;20438;-49
2021/05/03 04:30:12;;;;;;;9.47;5.00;;;7.10;99.90;;;;;;5014855;28;20438;-49
2021/05/03 04:32:38;;;;;;;9.33;5.20;;;7.50;99.90;;;;;;4996807;28;20477;-48
2021/05/03 04:35:06;;;;;;;8.10;5.00;;;7.50;99.90;;;;;;5014594;28;20995;-49
2021/05/03 04:37:33;;;;;;;9.33;4.93;;;7.40;99.90;;;;;;5014734;28;20492;-49
2021/05/03 04:39:59;;;;;;;6.30;4.43;;;7.10;99.90;;;;;;5014544;28;20434;-48
2021/05/03 04:42:25;;;;;;;11.23;5.93;;;7.10;99.90;;;;;;4996185;28;20450;-49
2021/05/03 04:44:52;;;;;;;7.70;5.30;;;7.40;99.90;;;;;;5014461;28;20492;-44
2021/05/03 04:47:18;;;;;;;7.07;4.73;;;7.40;99.90;;;;;;4996676;28;20509;-46
2021/05/03 04:49:45;;;;;;;5.93;4.50;;;7.30;99.90;;;;;;5014781;28;20485;-46
2021/05/03 04:52:11;;;;;;;10.70;5.07;;;7.60;99.90;;;;;;5013888;28;20430;-45
2021/05/03 04:54:37;;;;;;;7.83;4.60;;;7.70;99.90;;;;;;5013592;28;20450;-44
2021/05/03 04:57:04;;;;;;;8.30;5.10;;;7.50;99.90;;;;;;5015015;28;20431;-45
2021/05/03 04:59:30;;;;;;;7.40;4.97;;;7.50;99.90;;;;;;5016568;28;20474;-46
2021/05/03 05:01:57;;;;;;;7.07;4.30;;;7.50;99.90;;;;;;5012785;28;20437;-44
2021/05/03 05:04:23;;;;;;;8.70;5.13;;;7.40;99.90;;;;;;5012299;28;20487;-46
2021/05/03 05:06:51;;;;;;;7.00;5.17;;;7.90;99.90;;;;;;5012610;28;20442;-47
2021/05/03 05:09:17;;;;;;;8.10;4.90;;;7.50;99.90;;;;;;5012317;28;20491;-46
2021/05/03 05:11:43;;;;;;;6.97;4.60;;;7.50;99.90;;;;;;5012301;28;20497;-46
2021/05/03 05:14:09;;;;;;;9.20;5.40;;;7.90;99.90;;;;;;5011960;28;20466;-45
2021/05/03 05:16:36;;;;;;;8.63;6.50;;;7.90;99.90;;;;;;4994767;28;20448;-47
2021/05/03 05:19:04;;;;;;;13.33;5.43;;;8.10;99.90;;;;;;5012306;28;20440;-45
2021/05/03 05:21:30;;;;;;;7.50;5.40;;;8.20;99.90;;;;;;5012136;28;20470;-45
2021/05/03 05:23:56;;;;;;;6.93;4.13;;;8.30;99.90;;;;;;5012155;28;20486;-45
2021/05/03 05:26:23;;;;;;;8.13;4.73;;;8.30;99.90;;;;;;4994483;28;20459;-44
2021/05/03 05:28:49;;;;;;;7.13;4.33;;;8.30;99.90;;;;;;4994316;28;20873;-45
2021/05/03 05:31:15;;;;;;;5.23;4.33;;;8.40;99.90;;;;;;5012031;28;20994;-47
2021/05/03 05:33:41;;;;;;;8.93;4.10;;;8.10;99.90;;;;;;5012196;28;20779;-47
2021/05/03 05:36:09;;;;;;;8.53;4.93;;;8.70;99.90;;;;;;5012120;28;20429;-46
2021/05/03 05:38:37;;;;;;;8.33;4.60;;;8.60;99.90;;;;;;5012163;28;20455;-46
2021/05/03 05:41:04;;;;;;;4.70;4.20;;;8.90;99.90;;;;;;4994116;28;20554;-46
2021/05/03 05:43:30;;;;;;;10.13;4.83;;;8.80;99.90;;;;;;5011699;28;20975;-45
2021/05/03 05:45:56;;;;;;;7.60;4.77;;;8.70;99.90;;;;;;5012296;28;20420;-46
2021/05/03 05:48:23;;;;;;;6.63;3.77;;;8.70;99.90;;;;;;5012941;28;20909;-46
2021/05/03 05:50:49;;;;;;;7.07;4.30;;;8.70;99.90;;;;;;5012275;28;20396;-47
2021/05/03 05:53:16;;;;;;;5.37;4.53;;;9.00;99.90;;;;;;5012484;28;21032;-46
2021/05/03 05:55:43;;;;;;;8.73;4.60;;;8.60;99.90;;;;;;5012826;28;20795;-45
2021/05/03 05:58:09;;;;;;;6.37;4.00;;;8.60;99.90;;;;;;5013501;28;20793;-46
2021/05/03 06:00:35;;;;;;;9.40;5.00;;;8.40;99.90;;;;;;5013785;28;20436;-45
2021/05/03 06:03:02;;;;;;;8.10;4.17;;;8.60;99.90;;;;;;5013589;28;20449;-46
2021/05/03 06:05:28;;;;;;;9.50;5.90;;;8.60;99.90;;;;;;5014372;28;20487;-46
2021/05/03 06:07:55;;;;;;;7.73;3.90;;;8.20;99.90;;;;;;5014265;28;20508;-46
2021/05/03 06:10:22;;;;;;;10.10;5.13;;;8.40;99.90;;;;;;5013008;28;20921;-45
2021/05/03 06:12:48;;;;;;;6.10;4.77;;;8.50;99.90;;;;;;5012707;28;20431;-47
2021/05/03 06:15:14;;;;;;;8.10;4.83;;;8.50;99.90;;;;;;5011620;28;20435;-46
2021/05/03 06:17:41;;;;;;;6.33;4.53;;;8.60;99.90;;;;;;5014744;28;20438;-46
2021/05/03 06:20:08;;;;;;;9.90;5.30;;;8.40;99.90;;;;;;5011807;28;20440;-45
2021/05/03 06:22:35;;;;;;;7.00;4.23;;;9.10;99.90;;;;;;5011028;28;20582;-46
2021/05/03 06:25:01;;;;;;;7.37;4.10;;;9.10;99.90;;;;;;5011094;28;20591;-47
2021/05/03 06:27:28;;;;;;;5.00;4.50;;;9.30;99.90;;;;;;5011676;28;20580;-45
2021/05/03 06:29:55;;;;;;;9.30;4.40;;;9.50;99.90;;;;;;5011191;28;20874;-46
2021/05/03 06:32:21;;;;;;;8.40;4.03;;;9.30;99.90;;;;;;5011104;28;20428;-45
2021/05/03 06:34:47;;;;;;;9.40;3.83;;;9.70;99.90;;;;;;5011096;28;20460;-46
2021/05/03 06:37:13;;;;;;;6.67;3.93;;;9.70;99.90;;;;;;5013144;28;20519;-45
2021/05/03 06:39:40;;;;;;;9.70;4.37;;;9.40;99.90;;;;;;5015567;28;20993;-46
2021/05/03 06:42:06;;;;;;;8.93;4.17;;;9.40;99.90;;;;;;4997267;28;20526;-47
2021/05/03 06:44:34;;;;;;;5.97;3.50;;;9.60;99.90;;;;;;4997699;28;20559;-47
2021/05/03 06:47:01;;;;;;;5.70;4.60;;;9.60;99.90;;;;;;4998063;28;20452;-47
2021/05/03 06:49:27;;;;;;;6.07;4.30;;;9.30;99.90;;;;;;4997662;28;20824;-44
2021/05/03 06:51:53;;;;;;;5.00;3.67;;;9.40;99.90;;;;;;5015321;28;20407;-45
2021/05/03 06:54:20;;;;;;;6.63;3.57;;;9.40;99.90;;;;;;4997312;28;20527;-47
2021/05/03 06:56:46;;;;;;;4.80;2.97;;;9.80;99.90;;;;;;5015084;28;20432;-46
2021/05/03 06:59:12;;;;;;;4.57;4.17;;;9.80;99.90;;;;;;5015194;28;20791;-46
2021/05/03 07:01:39;;;;;;;5.80;3.67;;;9.90;99.90;;;;;;5015043;28;20436;-46
2021/05/03 07:04:06;;;;;;;7.73;3.70;;;10.10;99.90;;;;;;5014429;28;20527;-45
2021/05/03 07:06:32;;;;;;;8.03;4.30;;;9.80;99.90;;;;;;5015201;28;20432;-46
2021/05/03 07:08:59;;;;;;;6.70;4.30;;;9.70;99.90;;;;;;5015609;28;20428;-44
2021/05/03 07:11:29;;;;;;;6.90;3.60;;;10.00;99.90;;;;;;5014639;28;20431;-46
2021/05/03 07:13:56;;;;;;;4.93;2.63;;;10.10;99.90;;;;;;5014298;28;20456;-45
2021/05/03 07:16:22;;;;;;;6.40;2.90;;;10.70;99.90;;;;;;5014700;28;20440;-47
2021/05/03 07:18:49;;;;;;;5.03;3.20;;;10.40;99.90;;;;;;5014840;28;20400;-46
2021/05/03 07:21:16;;;;;;;8.20;4.70;;;10.60;99.90;;;;;;5014806;28;20925;-46
2021/05/03 07:23:42;;;;;;;3.47;2.50;;;10.80;99.90;;;;;;5014033;28;20456;-47
2021/05/03 07:26:09;;;;;;;4.60;2.50;;;10.80;98.80;;;;;;5015152;28;20437;-45
2021/05/03 07:28:36;;;;;;;5.57;2.70;;;10.50;98.60;;;;;;5015689;28;20445;-47
2021/05/03 07:31:02;;;;;;;8.63;3.30;;;11.00;98.90;;;;;;5014383;28;20429;-46
2021/05/03 07:33:29;;;;;;;8.80;2.93;;;10.70;98.40;;;;;;4996417;28;20468;-46
2021/05/03 07:35:57;;;;;;;4.53;2.83;;;10.60;98.00;;;;;;5018229;28;20462;-48
2021/05/03 07:38:23;;;;;;;4.13;2.50;;;10.30;98.50;;;;;;5013620;28;20555;-46
2021/05/03 07:40:50;;;;;;;7.80;3.10;;;10.60;98.60;;;;;;5014248;28;20455;-47
2021/05/03 07:43:17;;;;;;;5.13;2.83;;;10.30;98.80;;;;;;5013697;28;20530;-46
2021/05/03 07:45:43;;;;;;;5.67;3.30;;;10.50;99.30;;;;;;5013044;28;20825;-45
2021/05/03 07:48:10;;;;;;;7.80;3.00;;;10.30;98.90;;;;;;5011856;28;20433;-46
2021/05/03 07:50:37;;;;;;;4.40;3.40;;;10.80;98.80;;;;;;5012847;28;20440;-46
2021/05/03 07:53:04;;;;;;;6.07;3.07;;;10.90;98.30;;;;;;5012745;28;20465;-46
2021/05/03 07:55:31;;;;;;;6.67;3.10;;;10.90;98.10;;;;;;5013024;28;20452;-45
2021/05/03 07:57:59;;;;;;;5.03;3.40;;;11.00;98.30;;;;;;5012947;28;20440;-45
2021/05/03 08:00:25;;;;;;;5.80;3.70;;;11.10;98.60;;;;;;5013295;28;20765;-46
2021/05/03 08:02:52;;;;;;;3.50;2.80;;;11.20;98.20;;;;;;5012789;28;20436;-45
2021/05/03 08:05:18;;;;;;;4.30;3.10;;;11.10;97.60;;;;;;5012957;28;20857;-46
2021/05/03 08:07:44;;;;;;;7.57;3.13;;;11.30;97.50;;;;;;5012683;28;20532;-47
2021/05/03 08:10:12;;;;;;;5.80;2.70;;;11.30;97.50;;;;;;5012916;28;20432;-47
2021/05/03 08:12:38;;;;;;;3.60;2.60;;;11.20;97.40;;;;;;5012785;28;20844;-45
2021/05/03 08:15:11;;;;;;;3.33;2.40;;;11.20;96.90;;;;;;5014192;28;20504;-47
2021/05/03 08:17:38;;;;;;;5.40;2.70;;;11.40;96.40;;;;;;5014163;28;20442;-46
2021/05/03 08:20:06;;;;;;;4.10;3.00;;;11.40;95.50;;;;;;5013332;28;20518;-44
2021/05/03 08:22:33;;;;;;;3.33;2.83;;;11.50;95.50;;;;;;5012684;28;20462;-46
2021/05/03 08:25:00;;;;;;;5.13;3.80;;;11.30;95.80;;;;;;5012957;28;20481;-46
2021/05/03 08:27:27;;;;;;;2.87;2.57;;;11.30;95.70;;;;;;5013928;28;20465;-46
2021/05/03 08:29:54;;;;;;;3.53;3.10;;;11.30;95.00;;;;;;5014177;28;20438;-45
2021/05/03 08:32:20;;;;;;;4.07;3.40;;;11.40;95.20;;;;;;5013520;28;20475;-47
2021/05/03 08:34:47;;;;;;;4.60;2.90;;;11.60;95.70;;;;;;5012837;28;20772;-45
2021/05/03 08:37:13;;;;;;;4.40;3.20;;;11.90;95.10;;;;;;5011936;28;20499;-46
2021/05/03 08:39:40;;;;;;;4.80;2.70;;;11.20;94.40;;;;;;5012599;28;20523;-46
2021/05/03 08:42:08;;;;;;;6.20;2.97;;;11.80;94.90;;;;;;5012252;28;20428;-45
2021/05/03 08:44:36;;;;;;;7.07;3.40;;;11.90;94.80;;;;;;4994449;28;563157;-46
2021/05/03 08:47:03;;;;;;;3.10;2.13;;;11.90;94.80;;;;;;5014123;28;20200;-44
2021/05/03 08:49:35;;;;;;;3.83;1.80;;;12.10;94.60;;;;;;5013721;28;20437;-46
2021/05/03 08:52:10;;;;;;;4.37;2.37;;;12.20;93.00;;;;;;4995532;28;20449;-46
2021/05/03 08:54:40;;;;;;;4.43;1.80;;;12.20;92.50;;;;;;4997998;28;20472;-45
2021/05/03 08:57:07;;;;;;;4.53;1.90;;;12.30;92.60;;;;;;5013066;28;20440;-46
2021/05/03 08:59:36;;;;;;;3.70;2.60;;;12.40;91.80;;;;;;5012576;28;20461;-46
2021/05/03 09:02:04;;;;;;;5.43;2.30;;;12.10;91.60;;;;;;4995575;28;20568;-45
2021/05/03 09:04:31;;;;;;;4.97;2.47;;;11.90;91.70;;;;;;5012842;28;20544;-45
2021/05/03 09:06:59;;;;;;;8.53;3.00;;;11.90;91.60;;;;;;5012622;28;20504;-45
2021/05/03 09:09:33;;;;;;;3.30;2.13;;;11.70;91.20;;;;;;5012542;28;20470;-47
2021/05/03 09:12:01;;;;;;;5.30;2.80;;;12.00;91.80;;;;;;5012702;28;20543;-45
2021/05/03 09:14:30;;;;;;;5.33;2.00;;;12.00;92.00;;;;;;5012706;28;20998;-44
2021/05/03 09:16:57;;;;;;;5.10;2.73;;;11.70;91.50;;;;;;5012112;28;20436;-45
2021/05/03 09:19:24;;;;;;;4.90;2.00;;;11.80;91.40;;;;;;4994409;28;20504;-44
2021/05/03 09:21:51;;;;;;;2.70;1.93;;;11.90;90.60;;;;;;5012861;28;20439;-45
2021/05/03 09:24:23;;;;;;;3.90;1.90;;;12.20;90.40;;;;;;5011861;28;20552;-45
2021/05/03 09:27:01;;;;;;;2.13;1.50;;;11.80;90.10;;;;;;5012387;28;20812;-46
2021/05/03 09:29:34;;;;;;;3.00;1.90;;;12.10;90.00;;;;;;5012090;28;20441;-46
2021/05/03 09:32:09;;;;;;;3.53;2.10;;;12.20;89.90;;;;;;5012578;28;20467;-48
2021/05/03 09:34:38;;;;;;;4.10;2.60;;;12.40;90.00;;;;;;5011998;28;20453;-45
2021/05/03 09:37:29;;;;;;;5.47;2.30;;;12.60;90.20;;;;;;5011921;28;20443;-45
2021/05/03 09:40:01;;;;;;;4.17;2.17;;;12.70;89.60;;;;;;5012314;28;20527;-46
2021/05/03 09:42:47;;;;;;;3.80;2.10;;;12.30;87.00;;;;;;5011668;28;20439;-45
2021/05/03 09:45:15;;;;;;;4.20;1.70;;;12.30;86.20;;;;;;5011985;28;20470;-46
2021/05/03 09:47:42;;;;;;;4.73;2.13;;;12.20;87.30;;;;;;5011968;28;20435;-44
2021/05/03 09:50:12;;;;;;;4.67;2.70;;;12.10;86.60;;;;;;4994061;28;20902;-47
2021/05/03 09:52:38;;;;;;;6.20;2.60;;;12.10;87.50;;;;;;5011206;28;20805;-45
2021/05/03 09:55:34;;;;;;;3.70;1.97;;;12.20;88.00;;;;;;5011447;28;20449;-46
2021/05/03 09:58:08;;;;;;;3.40;2.07;;;12.80;86.20;;;;;;5012114;28;20487;-45
2021/05/03 10:00:36;;;;;;;6.57;1.87;;;12.90;84.90;;;;;;4994470;28;20467;-45
2021/05/03 10:03:23;;;;;;;4.53;2.17;;;13.00;83.30;;;;;;5011956;28;20482;-45
2021/05/03 10:05:49;;;;;;;3.00;2.07;;;12.70;82.80;;;;;;5012014;28;20492;-46
2021/05/03 10:08:16;;;;;;;4.30;2.23;;;12.60;82.20;;;;;;4994441;28;20473;-45
2021/05/03 10:10:47;;;;;;;2.10;1.60;;;12.90;82.90;;;;;;5012814;28;20471;-45
2021/05/03 10:13:14;;;;;;;2.50;1.63;;;12.90;81.70;;;;;;5017175;28;20459;-45
2021/05/03 10:15:41;;;;;;;3.93;1.80;;;12.80;80.50;;;;;;5017032;28;20437;-47
2021/05/03 10:18:09;;;;;;;2.80;2.03;;;12.90;81.70;;;;;;5016963;28;20783;-46
2021/05/03 10:20:35;;;;;;;7.87;2.63;;;13.20;82.90;;;;;;5016405;28;20868;-48
2021/05/03 10:23:02;;;;;;;3.77;2.40;;;13.20;80.90;;;;;;5015817;28;20479;-46
2021/05/03 10:25:28;;;;;;;2.43;1.93;;;13.40;81.40;;;;;;5015311;28;20586;-46
2021/05/03 10:27:59;;;;;;;3.83;1.93;;;13.50;78.80;;;;;;5015827;28;20441;-47
2021/05/03 10:30:27;;;;;;;3.77;1.97;;;13.00;78.40;;;;;;5015681;28;20479;-47
2021/05/03 10:33:01;;;;;;;5.30;2.00;;;13.20;79.10;;;;;;5015028;28;20751;-47
2021/05/03 10:35:30;;;;;;;4.33;2.00;;;13.20;77.90;;;;;;5015151;28;20436;-49
2021/05/03 10:37:57;;;;;;;6.63;2.57;;;13.70;78.60;;;;;;5015534;28;20441;-46
2021/05/03 10:40:47;;;;;;;6.87;1.90;;;12.80;77.70;;;;;;5016526;28;20986;-46
2021/05/03 10:48:55;;;;;;;6.53;3.00;;;13.30;77.10;;;;;;5018734;28;20458;-50
2021/05/03 10:51:40;;;;;;;4.30;2.17;;;13.70;77.60;;;;;;5033352;28;20887;-50
2021/05/03 10:54:35;;;;;;;2.67;1.90;;;13.90;75.10;;;;;;5032218;28;20463;-51
2021/05/03 10:57:04;;;;;;;2.43;2.03;;;14.00;73.30;;;;;;5033414;28;20447;-51
2021/05/03 10:59:45;;;;;;;2.40;2.20;;;13.90;71.50;;;;;;5033149;28;20547;-51
2021/05/03 11:02:15;;;;;;;3.37;1.90;;;13.80;72.00;;;;;;5033167;28;20431;-51
2021/05/03 11:05:09;;;;;;;3.77;2.33;;;13.70;70.50;;;;;;5031877;28;20995;-52
2021/05/03 11:07:36;;;;;;;3.00;2.10;;;13.80;71.20;;;;;;5032561;28;20985;-51
2021/05/03 11:10:04;;;;;;;3.10;2.50;;;14.00;72.10;;;;;;5032448;28;20434;-50
2021/05/03 11:12:34;;;;;;;2.43;1.40;;;14.10;72.10;;;;;;5032241;28;20488;-52
2021/05/03 11:15:14;;;;;;;2.77;1.80;;;14.00;72.10;;;;;;5032466;28;20466;-51
2021/05/03 11:18:14;;;;;;;4.47;1.73;;;14.00;71.20;;;;;;5032258;28;20442;-51
2021/05/03 11:21:10;;;;;;;2.10;1.63;;;14.00;67.50;;;;;;5032483;28;20518;-50
2021/05/03 11:23:38;;;;;;;4.03;1.87;;;14.20;68.50;;;;;;5031484;28;20463;-51
2021/05/03 11:26:05;;;;;;;4.03;1.97;;;13.90;68.10;;;;;;5032407;28;20478;-52
2021/05/03 11:28:35;;;;;;;2.10;1.60;;;13.80;68.10;;;;;;5032462;28;20431;-51
2021/05/03 11:31:16;;;;;;;2.60;1.70;;;13.70;67.90;;;;;;5032276;28;20439;-50
2021/05/03 11:33:45;;;;;;;3.43;1.97;;;13.80;68.80;;;;;;5031780;28;20524;-51
2021/05/03 11:36:20;;;;;;;2.50;1.47;;;13.90;68.70;;;;;;5014367;28;20510;-50
2021/05/03 11:38:55;;;;;;;4.23;1.70;;;13.90;69.60;;;;;;5032590;28;20458;-50
2021/05/03 11:41:32;;;;;;;4.57;1.97;;;14.00;69.40;;;;;;5032456;28;20799;-50
2021/05/03 11:44:11;;;;;;;3.50;1.93;;;14.40;69.40;;;;;;5031526;28;20458;-50
2021/05/03 11:46:38;;;;;;;2.97;1.90;;;14.50;68.70;;;;;;5032202;28;20459;-50
2021/05/03 11:49:19;;;;;;;6.10;2.67;;;14.50;68.60;;;;;;5031607;28;20443;-50
2021/05/03 11:51:48;;;;;;;2.53;2.00;;;14.90;67.80;;;;;;5031840;28;20431;-50
2021/05/03 11:54:26;;;;;;;3.53;2.27;;;14.50;66.90;;;;;;5031535;28;20448;-50
2021/05/03 11:56:57;;;;;;;2.97;1.40;;;14.60;65.70;;;;;;5031752;28;20429;-51
2021/05/03 11:59:24;;;;;;;3.13;1.60;;;14.20;67.40;;;;;;5031715;28;21005;-50
2021/05/03 12:02:03;;;;;;;1.63;1.30;;;14.10;68.40;;;;;;5032245;28;20441;-51
2021/05/03 12:04:38;;;;;;;2.73;1.70;;;14.10;66.50;;;;;;5013349;28;20549;-51
2021/05/03 12:07:20;;;;;;;4.03;1.57;;;14.00;66.10;;;;;;5013458;28;20622;-51
2021/05/03 12:09:48;;;;;;;2.30;1.60;;;14.30;65.10;;;;;;5031269;28;20474;-51
2021/05/03 12:12:15;;;;;;;2.43;1.80;;;14.30;64.00;;;;;;5031134;28;20464;-50
2021/05/03 12:14:45;;;;;;;5.13;2.23;;;14.30;65.40;;;;;;5030732;28;20449;-51
2021/05/03 12:17:23;;;;;;;3.10;2.00;;;14.50;65.00;;;;;;5030905;28;20434;-50
2021/05/03 12:19:52;;;;;;;3.83;2.23;;;14.60;65.40;;;;;;5031171;28;20439;-50
2021/05/03 12:22:20;;;;;;;5.73;2.10;;;14.60;64.60;;;;;;5030136;28;20450;-50
2021/05/03 12:24:48;;;;;;;6.13;1.73;;;14.70;64.60;;;;;;5012429;28;20491;-50
2021/05/03 12:27:15;;;;;;;5.80;2.63;;;14.80;63.50;;;;;;5030251;28;20434;-51
2021/05/03 12:29:44;;;;;;;4.67;2.43;;;14.80;62.30;;;;;;5012575;28;20443;-50
2021/05/03 12:32:16;;;;;;;2.60;1.67;;;14.80;61.70;;;;;;5030097;28;20808;-50
2021/05/03 12:34:48;;;;;;;1.80;1.50;;;14.60;60.70;;;;;;5028793;28;20855;-51
2021/05/03 12:37:17;;;;;;;2.90;2.27;;;14.50;61.60;;;;;;5030124;28;20473;-51
2021/05/03 12:40:08;;;;;;;2.93;1.50;;;14.40;59.90;;;;;;5030562;28;20436;-50
2021/05/03 12:42:40;;;;;;;3.73;2.50;;;14.50;61.00;;;;;;5030391;28;20863;-51
2021/05/03 12:45:21;;;;;;;6.53;2.30;;;14.40;62.10;;;;;;5029775;28;20589;-50
2021/05/03 12:47:59;;;;;;;4.27;2.50;;;14.50;62.70;;;;;;5019271;28;20515;-51
2021/05/03 12:50:30;;;;;;;4.83;2.10;;;14.80;62.60;;;;;;5030590;28;20512;-50
2021/05/03 12:53:14;;;;;;;3.60;2.57;;;15.00;62.70;;;;;;5029765;28;20938;-50
2021/05/03 12:55:58;;;;;;;5.53;2.20;;;15.10;62.80;;;;;;5030048;28;20463;-50
2021/05/03 12:58:31;;;;;;;4.13;1.73;;;15.30;63.30;;;;;;5030587;28;20428;-50
2021/05/03 13:01:08;;;;;;;5.83;2.10;;;14.70;62.60;;;;;;5030018;28;20931;-52
2021/05/03 13:03:45;;;;;;;3.33;2.03;;;14.70;62.90;;;;;;5029909;28;20817;-50
2021/05/03 13:06:27;;;;;;;7.63;2.20;;;14.50;63.00;;;;;;5029648;28;20574;-49
2021/05/03 13:09:08;;;;;;;3.33;2.10;;;14.50;63.40;;;;;;5030516;28;20486;-50
2021/05/03 13:12:04;;;;;;;3.60;2.57;;;14.60;65.10;;;;;;5029986;28;20765;-50
2021/05/03 13:29:01;;;;;;;3.67;2.60;;;14.60;67.00;;;;;;5012456;28;20435;-50
2021/05/03 13:31:28;;;;;;;3.63;2.50;;;14.50;67.30;;;;;;5030844;28;20577;-51